Time;durP1;ratioP1;P1;durP2;ratioP2;P2;SDS_P1;SDS_P2;PMS_P1;PMS_P2;Temp;Humidity;BMP_temperature;BMP_pressure;BME280_temperature;BME280_humidity;BME280_pressure;Samples;Min_cycle;Max_cycle;Signal;HPM_P1;HPM_P2
2024/01/23 00:01:56;;;;;;;19.70;3.72;;;9.30;99.90;;;;;;4136555;28;20054;-74
2024/01/23 00:03:57;;;;;;;19.20;4.10;;;9.30;99.90;;;;;;4154193;28;20438;-74
2024/01/23 00:05:58;;;;;;;24.15;4.93;;;9.30;99.90;;;;;;4158824;28;20037;-75
2024/01/23 00:07:58;;;;;;;17.08;3.65;;;9.30;99.90;;;;;;4157985;28;20045;-74
2024/01/23 00:09:59;;;;;;;18.23;3.90;;;9.30;99.90;;;;;;4156326;28;20053;-75
2024/01/23 00:12:01;;;;;;;19.42;3.58;;;9.30;99.90;;;;;;4155985;28;20446;-75
2024/01/23 00:14:02;;;;;;;20.08;3.92;;;9.30;99.90;;;;;;4159637;28;20041;-75
2024/01/23 00:16:03;;;;;;;19.02;4.00;;;9.20;99.90;;;;;;4155091;28;20041;-75
2024/01/23 00:18:06;;;;;;;13.23;3.45;;;9.20;99.90;;;;;;4160413;28;20512;-74
2024/01/23 00:20:07;;;;;;;17.45;4.25;;;9.20;99.90;;;;;;4161669;28;20406;-75
2024/01/23 00:22:08;;;;;;;19.23;3.58;;;9.20;99.90;;;;;;4162078;28;20061;-74
2024/01/23 00:24:09;;;;;;;14.77;3.90;;;9.20;99.90;;;;;;4159882;28;20036;-75
2024/01/23 00:26:09;;;;;;;21.30;3.65;;;9.20;99.90;;;;;;4158595;28;20259;-74
2024/01/23 00:28:10;;;;;;;16.77;3.78;;;9.20;99.90;;;;;;4158992;28;20117;-73
2024/01/23 00:30:12;;;;;;;14.05;3.70;;;9.20;99.90;;;;;;4157924;28;20116;-74
2024/01/23 00:32:13;;;;;;;15.15;3.33;;;9.20;99.90;;;;;;4157249;28;20449;-73
2024/01/23 00:34:13;;;;;;;18.08;3.63;;;9.20;99.90;;;;;;4154091;28;20080;-73
2024/01/23 00:36:14;;;;;;;15.73;3.20;;;9.20;99.90;;;;;;4155718;28;20386;-73
2024/01/23 00:38:14;;;;;;;17.80;4.07;;;9.10;99.90;;;;;;4138925;28;20778;-74
2024/01/23 00:40:15;;;;;;;15.35;4.03;;;9.10;99.90;;;;;;4152790;28;20566;-74
2024/01/23 00:42:16;;;;;;;19.25;4.13;;;9.10;99.90;;;;;;4134027;28;20609;-74
2024/01/23 00:44:16;;;;;;;14.60;3.03;;;9.10;99.90;;;;;;4153813;28;20037;-74
2024/01/23 00:46:17;;;;;;;18.95;3.92;;;9.00;99.90;;;;;;4154661;28;20557;-74
2024/01/23 00:48:17;;;;;;;16.33;3.33;;;9.00;99.90;;;;;;4155844;28;20045;-75
2024/01/23 00:50:18;;;;;;;21.80;4.03;;;9.00;99.90;;;;;;4160876;28;20025;-75
2024/01/23 00:52:19;;;;;;;19.23;3.90;;;8.90;99.90;;;;;;4161548;28;20044;-74
2024/01/23 00:54:19;;;;;;;19.70;3.65;;;8.90;99.90;;;;;;4158906;28;20040;-74
2024/01/23 00:56:20;;;;;;;13.85;3.58;;;8.90;99.90;;;;;;4156474;28;20092;-75
2024/01/23 00:58:20;;;;;;;18.58;4.35;;;8.90;99.90;;;;;;4138168;28;20034;-74
2024/01/23 01:00:21;;;;;;;17.65;4.28;;;8.90;99.90;;;;;;4159499;28;20052;-75
2024/01/23 01:02:22;;;;;;;13.57;3.15;;;8.80;99.90;;;;;;4144185;28;20477;-75
2024/01/23 01:04:22;;;;;;;17.20;3.65;;;8.80;99.90;;;;;;4155180;28;20045;-75
2024/01/23 01:06:23;;;;;;;19.92;4.43;;;8.80;99.90;;;;;;4160756;28;20386;-74
2024/01/23 01:08:24;;;;;;;14.40;3.08;;;8.80;99.90;;;;;;4158322;28;20425;-74
2024/01/23 01:10:24;;;;;;;19.63;3.45;;;8.80;99.90;;;;;;4154226;28;20495;-74
2024/01/23 01:12:25;;;;;;;14.52;3.58;;;8.80;99.90;;;;;;4160176;28;20029;-74
2024/01/23 01:14:25;;;;;;;15.45;3.45;;;8.80;99.90;;;;;;4160207;28;20041;-74
2024/01/23 01:16:26;;;;;;;14.93;3.17;;;8.80;99.90;;;;;;4154582;28;20421;-75
2024/01/23 01:18:26;;;;;;;18.08;3.55;;;8.80;99.90;;;;;;4161329;28;20100;-74
2024/01/23 01:20:27;;;;;;;16.25;3.30;;;8.80;99.90;;;;;;4156435;28;20037;-74
2024/01/23 01:22:28;;;;;;;18.00;3.90;;;8.80;99.90;;;;;;4159255;28;20025;-74
2024/01/23 01:24:28;;;;;;;16.17;3.20;;;8.80;99.90;;;;;;4158932;28;20042;-74
2024/01/23 01:26:29;;;;;;;18.60;3.65;;;8.90;99.90;;;;;;4152604;28;20045;-74
2024/01/23 01:28:29;;;;;;;11.00;2.53;;;8.90;99.90;;;;;;4160230;28;20321;-74
2024/01/23 01:30:30;;;;;;;16.08;3.30;;;8.80;99.90;;;;;;4158969;28;20387;-74
2024/01/23 01:32:30;;;;;;;17.35;2.92;;;8.90;99.90;;;;;;4150985;28;20446;-75
2024/01/23 01:34:31;;;;;;;22.75;4.30;;;8.90;99.90;;;;;;4161764;28;20394;-75
2024/01/23 01:36:32;;;;;;;19.52;4.22;;;8.90;99.90;;;;;;4158795;28;20509;-74
2024/01/23 01:38:32;;;;;;;15.23;3.33;;;8.90;99.90;;;;;;4156508;28;20040;-72
2024/01/23 01:40:33;;;;;;;14.43;3.17;;;8.90;99.90;;;;;;4140443;28;20466;-72
2024/01/23 01:42:33;;;;;;;15.45;3.08;;;8.90;99.90;;;;;;4127382;28;20038;-72
2024/01/23 01:44:34;;;;;;;20.23;3.53;;;8.90;99.90;;;;;;4150466;28;20029;-72
2024/01/23 01:46:35;;;;;;;20.48;3.72;;;8.90;99.90;;;;;;4155793;28;20030;-72
2024/01/23 01:48:36;;;;;;;14.95;3.60;;;8.90;99.90;;;;;;4151228;28;20053;-72
2024/01/23 01:50:36;;;;;;;14.10;3.05;;;8.90;99.90;;;;;;4155010;28;20065;-74
2024/01/23 01:52:38;;;;;;;12.88;2.70;;;8.90;99.90;;;;;;4161023;28;20040;-74
2024/01/23 01:54:43;;;;;;;18.40;4.10;;;8.90;99.90;;;;;;4155380;28;20464;-74
2024/01/23 01:56:44;;;;;;;13.23;3.55;;;8.80;99.90;;;;;;4150272;28;20030;-74
2024/01/23 01:58:46;;;;;;;16.65;3.10;;;8.80;99.90;;;;;;4158206;28;20040;-75
2024/01/23 02:00:47;;;;;;;14.77;3.58;;;8.80;99.90;;;;;;4139147;28;20026;-74
2024/01/23 02:02:50;;;;;;;10.00;2.85;;;8.80;99.90;;;;;;4161461;28;20498;-74
2024/01/23 02:04:50;;;;;;;17.20;2.90;;;8.80;99.90;;;;;;4141039;28;20463;-74
2024/01/23 02:06:52;;;;;;;13.43;3.15;;;8.80;99.90;;;;;;4153286;28;20113;-75
2024/01/23 02:08:54;;;;;;;21.60;3.65;;;8.70;99.90;;;;;;4142365;28;20038;-75
2024/01/23 02:10:55;;;;;;;19.65;3.53;;;8.80;99.90;;;;;;4159799;28;20036;-74
2024/01/23 02:12:56;;;;;;;17.95;3.33;;;8.70;99.90;;;;;;4160483;28;20037;-74
2024/01/23 02:14:56;;;;;;;15.68;3.28;;;8.70;99.90;;;;;;4151360;28;20071;-74
2024/01/23 02:16:57;;;;;;;11.85;2.78;;;8.70;99.90;;;;;;4157158;28;20553;-74
2024/01/23 02:18:57;;;;;;;13.85;3.33;;;8.70;99.90;;;;;;4158948;28;20562;-74
2024/01/23 02:20:58;;;;;;;18.15;3.60;;;8.70;99.90;;;;;;4159148;28;20057;-75
2024/01/23 02:22:58;;;;;;;14.90;3.65;;;8.70;99.90;;;;;;4161651;28;20030;-74
2024/01/23 02:24:59;;;;;;;12.20;3.33;;;8.70;99.90;;;;;;4150200;28;20045;-74
2024/01/23 02:27:00;;;;;;;11.73;2.85;;;8.70;99.90;;;;;;4157146;28;20048;-75
2024/01/23 02:29:00;;;;;;;14.20;3.15;;;8.70;99.90;;;;;;4158770;28;20041;-74
2024/01/23 02:31:01;;;;;;;13.25;3.30;;;8.60;99.90;;;;;;4156997;28;20030;-74
2024/01/23 02:33:05;;;;;;;13.82;3.40;;;8.70;99.90;;;;;;4156636;28;20045;-74
2024/01/23 02:35:06;;;;;;;19.35;3.72;;;8.60;99.90;;;;;;4155486;28;20041;-74
2024/01/23 02:37:07;;;;;;;19.80;3.58;;;8.60;99.90;;;;;;4159074;28;20399;-75
2024/01/23 02:39:08;;;;;;;15.23;3.60;;;8.60;99.90;;;;;;4159260;28;20036;-75
2024/01/23 02:41:09;;;;;;;18.75;3.38;;;8.60;99.90;;;;;;4159577;28;20029;-74
2024/01/23 02:43:10;;;;;;;15.45;3.08;;;8.50;99.90;;;;;;4154040;28;20045;-75
2024/01/23 02:45:10;;;;;;;17.42;3.67;;;8.60;99.90;;;;;;4157760;28;20117;-74
2024/01/23 02:47:11;;;;;;;13.45;3.20;;;8.50;99.90;;;;;;4156355;28;20064;-74
2024/01/23 02:49:12;;;;;;;14.25;3.15;;;8.50;99.90;;;;;;4158080;28;20045;-72
2024/01/23 02:51:19;;;;;;;16.02;3.22;;;8.50;99.90;;;;;;4136929;28;20557;-72
2024/01/23 02:53:20;;;;;;;12.38;3.08;;;8.50;99.90;;;;;;4155028;28;20040;-74
2024/01/23 02:55:20;;;;;;;20.45;4.05;;;8.50;99.90;;;;;;4158381;28;20410;-73
2024/01/23 02:57:21;;;;;;;16.23;3.03;;;8.50;99.90;;;;;;4157583;28;20102;-73
2024/01/23 02:59:22;;;;;;;23.00;3.47;;;8.40;99.90;;;;;;4158906;28;20065;-72
2024/01/23 03:01:22;;;;;;;15.07;3.10;;;8.40;99.90;;;;;;4152811;28;20040;-74
2024/01/23 03:03:23;;;;;;;22.13;3.72;;;8.40;99.90;;;;;;4156504;28;20652;-73
2024/01/23 03:05:24;;;;;;;18.10;3.58;;;8.40;99.90;;;;;;4154502;28;20898;-72
2024/01/23 03:07:24;;;;;;;16.17;3.20;;;8.30;99.90;;;;;;4156816;28;20418;-72
2024/01/23 03:09:25;;;;;;;15.75;3.58;;;8.40;99.90;;;;;;4153416;28;20450;-72
2024/01/23 03:11:25;;;;;;;16.80;3.08;;;8.30;99.90;;;;;;4135979;28;20038;-72
2024/01/23 03:13:26;;;;;;;13.20;2.92;;;8.30;99.90;;;;;;4157879;28;20482;-71
2024/01/23 03:15:26;;;;;;;11.85;3.13;;;8.30;99.90;;;;;;4156231;28;20637;-72
2024/01/23 03:17:27;;;;;;;12.27;2.65;;;8.30;99.90;;;;;;4158025;28;20561;-71
2024/01/23 03:19:28;;;;;;;10.52;2.80;;;8.30;99.90;;;;;;4151445;28;20113;-74
2024/01/23 03:21:28;;;;;;;16.33;3.40;;;8.30;99.90;;;;;;4156504;28;20037;-71
2024/01/23 03:23:29;;;;;;;13.95;3.47;;;8.30;99.90;;;;;;4142154;28;20034;-71
2024/01/23 03:25:29;;;;;;;16.75;3.53;;;8.30;99.90;;;;;;4156011;28;20041;-72
2024/01/23 03:27:31;;;;;;;14.82;3.35;;;8.20;99.90;;;;;;4156875;28;20065;-72
2024/01/23 03:29:38;;;;;;;13.57;3.00;;;8.20;99.90;;;;;;4120219;28;20483;-72
2024/01/23 03:31:38;;;;;;;17.13;3.30;;;8.20;99.90;;;;;;4140969;28;20026;-73
2024/01/23 03:33:39;;;;;;;15.15;2.92;;;8.30;99.90;;;;;;4157909;28;20036;-72
2024/01/23 03:35:40;;;;;;;19.80;3.30;;;8.20;99.90;;;;;;4140553;28;20410;-72
2024/01/23 03:37:40;;;;;;;17.58;3.42;;;8.20;99.90;;;;;;4157554;28;20135;-72
2024/01/23 03:39:41;;;;;;;15.05;3.20;;;8.20;99.90;;;;;;4135862;28;20057;-72
2024/01/23 03:41:42;;;;;;;12.65;3.00;;;8.20;99.90;;;;;;4157808;28;20398;-72
2024/01/23 03:43:42;;;;;;;13.95;2.63;;;8.20;99.90;;;;;;4118714;28;20026;-72
2024/01/23 03:45:43;;;;;;;16.33;2.88;;;8.20;99.90;;;;;;4134600;28;20034;-72
2024/01/23 03:47:44;;;;;;;17.77;3.50;;;8.10;99.90;;;;;;4151960;28;20029;-73
2024/01/23 03:49:44;;;;;;;8.55;2.30;;;8.10;99.90;;;;;;4148834;28;20030;-73
2024/01/23 03:51:45;;;;;;;13.30;3.35;;;8.10;99.90;;;;;;4149126;28;20464;-72
2024/01/23 03:53:46;;;;;;;15.77;3.50;;;8.10;99.90;;;;;;4157031;28;20402;-72
2024/01/23 03:55:46;;;;;;;9.38;2.58;;;8.10;99.90;;;;;;4138582;28;20034;-74
2024/01/23 03:57:48;;;;;;;11.27;2.88;;;8.10;99.90;;;;;;4151046;28;20133;-72
2024/01/23 03:59:49;;;;;;;17.55;3.25;;;8.10;99.90;;;;;;4134934;28;20065;-77
2024/01/23 04:01:50;;;;;;;18.70;3.13;;;8.00;99.90;;;;;;4149531;28;20018;-76
2024/01/23 04:03:50;;;;;;;15.32;3.40;;;8.00;99.90;;;;;;4151845;28;20033;-76
2024/01/23 04:05:51;;;;;;;13.50;2.45;;;8.00;99.90;;;;;;4151511;28;20046;-74
2024/01/23 04:07:52;;;;;;;20.13;3.22;;;8.00;99.90;;;;;;4131672;28;20034;-77
2024/01/23 04:09:52;;;;;;;14.73;3.28;;;8.00;99.90;;;;;;4149590;28;20676;-72
2024/01/23 04:11:53;;;;;;;20.42;3.55;;;7.90;99.90;;;;;;4152318;28;20092;-72
2024/01/23 04:13:53;;;;;;;16.58;3.35;;;7.90;99.90;;;;;;4154104;28;20399;-71
2024/01/23 04:15:54;;;;;;;12.45;3.08;;;8.00;99.90;;;;;;4148252;28;20075;-72
2024/01/23 04:17:56;;;;;;;15.18;2.55;;;7.90;99.90;;;;;;4153687;28;20033;-72
2024/01/23 04:19:56;;;;;;;16.87;2.90;;;8.00;99.90;;;;;;4136497;28;20080;-74
2024/01/23 04:21:57;;;;;;;16.52;3.92;;;7.90;99.90;;;;;;4154092;28;20673;-72
2024/01/23 04:23:58;;;;;;;12.77;3.30;;;8.00;99.90;;;;;;4156105;28;20033;-72
2024/01/23 04:25:59;;;;;;;15.52;2.97;;;8.00;99.90;;;;;;4151325;28;20098;-72
2024/01/23 04:27:59;;;;;;;16.45;3.22;;;7.90;99.90;;;;;;4153995;28;20136;-72
2024/01/23 04:30:00;;;;;;;13.88;3.42;;;7.90;99.90;;;;;;4136702;28;20519;-73
2024/01/23 04:32:00;;;;;;;15.35;3.05;;;7.90;99.90;;;;;;4133242;28;20415;-72
2024/01/23 04:34:01;;;;;;;18.42;4.00;;;7.90;99.90;;;;;;4154348;28;20051;-72
2024/01/23 04:36:02;;;;;;;14.88;2.67;;;7.90;99.90;;;;;;4149287;28;20037;-72
2024/01/23 04:38:02;;;;;;;16.73;3.70;;;7.90;99.90;;;;;;4121638;28;20550;-72
2024/01/23 04:40:07;;;;;;;17.02;3.60;;;7.90;99.90;;;;;;4155328;28;20120;-74
2024/01/23 04:42:07;;;;;;;17.25;3.58;;;7.90;99.90;;;;;;4152850;28;20415;-72
2024/01/23 04:44:08;;;;;;;13.38;3.40;;;7.90;99.90;;;;;;4135312;28;20117;-72
2024/01/23 04:46:09;;;;;;;13.63;3.40;;;7.90;99.90;;;;;;4151717;28;20060;-73
2024/01/23 04:48:11;;;;;;;13.73;3.22;;;7.80;99.90;;;;;;4154769;28;20065;-71
2024/01/23 04:50:11;;;;;;;17.67;3.80;;;7.90;99.90;;;;;;4155506;28;20037;-72
2024/01/23 04:52:12;;;;;;;12.88;3.17;;;7.80;99.90;;;;;;4153833;28;20517;-73
2024/01/23 04:54:13;;;;;;;15.45;3.15;;;7.80;99.90;;;;;;4159947;28;20486;-73
2024/01/23 04:56:13;;;;;;;17.17;3.35;;;7.80;99.90;;;;;;4153161;28;20116;-72
2024/01/23 04:58:14;;;;;;;16.15;2.90;;;7.80;99.90;;;;;;4156543;28;20461;-72
2024/01/23 05:00:17;;;;;;;15.63;3.22;;;7.80;99.90;;;;;;4153568;28;20026;-72
2024/01/23 05:02:18;;;;;;;14.50;3.53;;;7.70;99.90;;;;;;4152576;28;20038;-72
2024/01/23 05:04:18;;;;;;;14.63;3.85;;;7.70;99.90;;;;;;4137447;28;20516;-72
2024/01/23 05:06:19;;;;;;;21.30;4.32;;;7.70;99.90;;;;;;4157746;28;20399;-73
2024/01/23 05:08:19;;;;;;;14.60;2.65;;;7.70;99.90;;;;;;4157506;28;20533;-73
2024/01/23 05:10:20;;;;;;;14.48;3.30;;;7.70;99.90;;;;;;4117911;28;20121;-72
2024/01/23 05:12:20;;;;;;;13.30;2.92;;;7.70;99.90;;;;;;4144327;28;20478;-73
2024/01/23 05:14:21;;;;;;;19.25;3.55;;;7.70;99.90;;;;;;4160471;28;20049;-72
2024/01/23 05:16:22;;;;;;;13.23;2.83;;;7.60;99.90;;;;;;4157506;28;20041;-73
2024/01/23 05:18:22;;;;;;;23.85;4.07;;;7.70;99.90;;;;;;4123521;28;20432;-72
2024/01/23 05:20:23;;;;;;;20.88;3.70;;;7.60;99.90;;;;;;4156892;28;20525;-74
2024/01/23 05:22:23;;;;;;;11.65;2.38;;;7.60;99.90;;;;;;4161653;28;20416;-75
2024/01/23 05:24:25;;;;;;;11.90;2.85;;;7.60;99.90;;;;;;4144308;28;20034;-75
2024/01/23 05:26:25;;;;;;;14.73;2.80;;;7.60;99.90;;;;;;4142142;28;20080;-75
2024/01/23 05:28:26;;;;;;;11.15;3.17;;;7.60;99.90;;;;;;4157682;28;20486;-74
2024/01/23 05:30:27;;;;;;;18.58;3.70;;;7.60;99.90;;;;;;4160095;28;20791;-76
2024/01/23 05:32:27;;;;;;;14.10;3.22;;;7.60;99.90;;;;;;4156998;28;20124;-76
2024/01/23 05:34:28;;;;;;;13.88;2.95;;;7.60;99.90;;;;;;4155962;28;20507;-77
2024/01/23 05:36:28;;;;;;;13.75;3.03;;;7.60;99.90;;;;;;4158686;28;20076;-76
2024/01/23 05:38:29;;;;;;;18.02;3.40;;;7.60;99.90;;;;;;4160090;28;20529;-76
2024/01/23 05:40:29;;;;;;;19.15;3.45;;;7.50;99.90;;;;;;4160849;28;20502;-77
2024/01/23 05:42:30;;;;;;;11.23;2.75;;;7.40;99.90;;;;;;4161263;28;20033;-78
2024/01/23 05:44:31;;;;;;;13.52;3.58;;;7.50;99.90;;;;;;4153795;28;20046;-75
2024/01/23 05:46:33;;;;;;;21.27;4.47;;;7.50;99.90;;;;;;4142775;28;20073;-77
2024/01/23 05:48:34;;;;;;;;;;;7.40;99.90;;;;;;4158235;28;20103;-79
2024/01/23 05:50:34;;;;;;;16.02;2.95;;;7.40;99.90;;;;;;4160457;28;20281;-77
2024/01/23 05:52:35;;;;;;;15.43;3.13;;;7.40;99.90;;;;;;4159931;28;20029;-77
2024/01/23 05:54:38;;;;;;;17.35;3.25;;;7.40;99.90;;;;;;4156106;28;20060;-76
2024/01/23 05:56:38;;;;;;;19.95;3.22;;;7.40;99.90;;;;;;4141919;28;20048;-76
2024/01/23 05:58:42;;;;;;;16.60;3.03;;;7.40;99.90;;;;;;4156143;28;20439;-76
2024/01/23 06:00:42;;;;;;;27.33;3.45;;;7.40;99.90;;;;;;4158507;28;20570;-77
2024/01/23 06:02:43;;;;;;;15.43;3.72;;;7.40;99.90;;;;;;4161241;28;20052;-77
2024/01/23 06:04:44;;;;;;;17.80;3.90;;;7.40;99.90;;;;;;4154351;28;20044;-76
2024/01/23 06:06:44;;;;;;;17.65;3.33;;;7.40;99.90;;;;;;4158037;28;20041;-76
2024/01/23 06:08:46;;;;;;;16.70;3.15;;;7.30;99.90;;;;;;4140999;28;20387;-77
2024/01/23 06:10:47;;;;;;;24.55;3.63;;;7.40;99.90;;;;;;4154193;28;20029;-75
2024/01/23 06:12:48;;;;;;;20.17;3.63;;;7.30;99.90;;;;;;4156561;28;20399;-76
2024/01/23 06:14:48;;;;;;;9.70;2.63;;;7.30;99.90;;;;;;4158465;28;20033;-76
2024/01/23 06:16:49;;;;;;;13.52;2.83;;;7.30;99.90;;;;;;4155816;28;20388;-76
2024/01/23 06:18:49;;;;;;;15.80;3.72;;;7.30;99.90;;;;;;4157772;28;20056;-71
2024/01/23 06:20:50;;;;;;;11.07;3.33;;;7.30;99.90;;;;;;4158178;28;20666;-75
2024/01/23 06:22:51;;;;;;;18.58;3.72;;;7.30;99.90;;;;;;4150048;28;20430;-75
2024/01/23 06:25:01;;;;;;;16.08;3.20;;;7.30;99.90;;;;;;4155074;28;20056;-76
2024/01/23 06:27:02;;;;;;;8.15;2.38;;;7.30;99.90;;;;;;4140031;28;20033;-76
2024/01/23 06:29:03;;;;;;;14.85;3.97;;;7.20;99.90;;;;;;4154465;28;20104;-77
2024/01/23 06:31:04;;;;;;;24.70;4.13;;;7.20;99.90;;;;;;4156376;28;20499;-76
2024/01/23 06:33:05;;;;;;;8.98;2.67;;;7.30;99.90;;;;;;4155903;28;20044;-75
2024/01/23 06:35:07;;;;;;;14.27;2.70;;;7.30;99.90;;;;;;4154719;28;20033;-76
2024/01/23 06:37:07;;;;;;;14.38;3.38;;;7.20;99.90;;;;;;4148970;28;20526;-77
2024/01/23 06:39:08;;;;;;;13.52;2.85;;;7.20;99.90;;;;;;4156177;28;20056;-76
2024/01/23 06:41:09;;;;;;;18.65;3.45;;;7.20;99.90;;;;;;4156962;28;20091;-76
2024/01/23 06:43:10;;;;;;;13.63;2.88;;;7.20;99.90;;;;;;4152483;28;20057;-75
2024/01/23 06:45:11;;;;;;;15.45;3.38;;;7.20;99.90;;;;;;4155067;28;20033;-75
2024/01/23 06:47:11;;;;;;;15.45;3.42;;;7.20;99.90;;;;;;4152745;28;20040;-77
2024/01/23 06:49:12;;;;;;;14.65;2.97;;;7.20;99.90;;;;;;4154783;28;20068;-73
2024/01/23 06:51:12;;;;;;;14.13;3.50;;;7.20;99.90;;;;;;4154937;28;20045;-74
2024/01/23 06:53:13;;;;;;;14.07;3.08;;;7.10;99.90;;;;;;4140432;28;20053;-73
2024/01/23 06:55:14;;;;;;;19.50;3.67;;;7.20;99.90;;;;;;4157171;28;20154;-73
2024/01/23 06:57:15;;;;;;;16.70;3.08;;;7.10;99.90;;;;;;4156201;28;20061;-73
2024/01/23 06:59:16;;;;;;;17.17;3.30;;;7.10;99.90;;;;;;4154172;28;20053;-73
2024/01/23 07:01:17;;;;;;;28.10;4.45;;;7.10;99.90;;;;;;4154834;28;20438;-72
2024/01/23 07:03:17;;;;;;;22.45;4.00;;;7.00;99.90;;;;;;4140491;28;20112;-73
2024/01/23 07:05:18;;;;;;;15.50;3.13;;;7.10;99.90;;;;;;4123428;28;20496;-73
2024/01/23 07:07:19;;;;;;;19.17;3.67;;;7.10;99.90;;;;;;4152496;28;20479;-73
2024/01/23 07:09:19;;;;;;;12.13;2.70;;;7.00;99.90;;;;;;4155221;28;20033;-72
2024/01/23 07:11:20;;;;;;;14.88;2.80;;;7.00;99.90;;;;;;4152298;28;20033;-73
2024/01/23 07:13:21;;;;;;;16.70;3.33;;;7.00;99.90;;;;;;4155168;28;20030;-73
2024/01/23 07:15:22;;;;;;;19.20;3.63;;;7.00;99.90;;;;;;4126739;28;20511;-72
2024/01/23 07:17:22;;;;;;;10.30;2.33;;;7.00;99.90;;;;;;4142125;28;20037;-72
2024/01/23 07:19:23;;;;;;;16.15;3.17;;;7.00;99.90;;;;;;4136639;28;20423;-73
2024/01/23 07:21:24;;;;;;;15.13;3.20;;;7.00;99.90;;;;;;4129579;28;20491;-72
2024/01/23 07:23:24;;;;;;;18.92;3.35;;;7.00;99.90;;;;;;4135890;28;20038;-74
2024/01/23 07:25:25;;;;;;;15.38;3.25;;;7.00;99.90;;;;;;4148749;28;20503;-73
2024/01/23 07:27:26;;;;;;;16.42;3.08;;;6.90;99.90;;;;;;4154320;28;20116;-73
2024/01/23 07:29:27;;;;;;;15.27;3.40;;;6.90;99.90;;;;;;4156164;28;20029;-73
2024/01/23 07:31:27;;;;;;;18.65;3.65;;;6.90;99.90;;;;;;4132696;28;20048;-72
2024/01/23 07:33:28;;;;;;;25.92;3.15;;;6.90;99.90;;;;;;4136856;28;20046;-72
2024/01/23 07:35:28;;;;;;;19.45;3.85;;;6.90;99.90;;;;;;4152522;28;20442;-73
2024/01/23 07:37:29;;;;;;;15.82;3.40;;;6.90;99.90;;;;;;4155542;28;20029;-73
2024/01/23 07:39:30;;;;;;;14.02;2.97;;;6.80;99.90;;;;;;4157942;28;20106;-74
2024/01/23 07:41:31;;;;;;;14.73;3.03;;;6.80;99.90;;;;;;4153376;28;20032;-74
2024/01/23 07:43:32;;;;;;;16.77;3.25;;;6.80;99.90;;;;;;4150376;28;20041;-74
2024/01/23 07:45:33;;;;;;;8.15;2.75;;;6.80;99.90;;;;;;4151123;28;20049;-74
2024/01/23 07:47:34;;;;;;;16.70;2.92;;;6.80;99.90;;;;;;4147731;28;20077;-73
2024/01/23 07:49:34;;;;;;;16.63;3.53;;;6.90;99.90;;;;;;4151504;28;20511;-73
2024/01/23 07:51:48;;;;;;;8.82;2.50;;;6.90;99.90;;;;;;4153081;28;20047;-74
2024/01/23 07:53:50;;;;;;;13.20;3.20;;;6.90;99.90;;;;;;4152131;28;20131;-74
2024/01/23 07:55:52;;;;;;;18.35;3.22;;;6.80;99.90;;;;;;4151833;28;20571;-74
2024/01/23 07:57:52;;;;;;;16.50;3.33;;;6.80;99.90;;;;;;4148972;28;20052;-73
2024/01/23 07:59:53;;;;;;;14.52;2.40;;;6.90;99.90;;;;;;4152805;28;20526;-76
2024/01/23 08:01:54;;;;;;;10.88;2.88;;;6.90;99.90;;;;;;4151030;28;20041;-76
2024/01/23 08:03:54;;;;;;;16.50;3.50;;;7.00;99.90;;;;;;4137448;28;20045;-75
2024/01/23 08:05:55;;;;;;;15.90;2.88;;;7.00;99.90;;;;;;4137030;28;20106;-75
2024/01/23 08:07:56;;;;;;;16.00;3.80;;;7.00;99.90;;;;;;4132373;28;20399;-75
2024/01/23 08:09:56;;;;;;;20.10;3.38;;;7.10;99.90;;;;;;4152024;28;20407;-75
2024/01/23 08:11:57;;;;;;;16.40;3.63;;;7.20;99.90;;;;;;4148933;28;20096;-78
2024/01/23 08:13:58;;;;;;;15.18;3.35;;;7.30;99.90;;;;;;4150606;28;20113;-76
2024/01/23 08:15:58;;;;;;;12.05;3.05;;;7.40;99.90;;;;;;4132365;28;20069;-75
2024/01/23 08:18:03;;;;;;;17.48;3.50;;;7.50;99.90;;;;;;4152796;28;20556;-75
2024/01/23 08:20:08;;;;;;;18.83;3.63;;;7.60;99.90;;;;;;4149848;28;20120;-75
2024/01/23 08:22:08;;;;;;;11.10;2.70;;;7.70;99.90;;;;;;4153596;28;20531;-76
2024/01/23 08:24:09;;;;;;;13.40;3.25;;;7.90;99.90;;;;;;4153793;28;20021;-76
2024/01/23 08:26:10;;;;;;;15.93;3.50;;;8.10;99.90;;;;;;4152710;28;20038;-76
2024/01/23 08:28:10;;;;;;;7.95;2.22;;;8.20;99.90;;;;;;4155602;28;20036;-76
2024/01/23 08:30:11;;;;;;;22.27;4.28;;;8.30;99.90;;;;;;4156851;28;20034;-76
2024/01/23 08:32:12;;;;;;;16.52;3.53;;;8.40;99.90;;;;;;4155568;28;20566;-74
2024/01/23 08:34:13;;;;;;;13.68;3.10;;;8.60;99.90;;;;;;4153982;28;20072;-75
2024/01/23 08:36:14;;;;;;;11.20;3.00;;;8.60;99.90;;;;;;4154682;28;20499;-76
2024/01/23 08:38:14;;;;;;;10.48;2.88;;;8.70;99.90;;;;;;4156149;28;20536;-76
2024/01/23 08:40:16;;;;;;;21.88;3.97;;;8.90;99.90;;;;;;4154063;28;20044;-74
2024/01/23 08:42:16;;;;;;;13.50;2.80;;;9.00;99.90;;;;;;4154442;28;20030;-74
2024/01/23 08:44:17;;;;;;;12.35;3.53;;;9.10;99.90;;;;;;4152873;28;20096;-74
2024/01/23 08:46:18;;;;;;;15.60;3.22;;;9.30;99.90;;;;;;4150919;28;20045;-74
2024/01/23 08:48:23;;;;;;;11.77;3.17;;;9.30;99.90;;;;;;4151455;28;20041;-74
2024/01/23 08:50:23;;;;;;;10.40;2.70;;;9.40;99.90;;;;;;4153253;28;20674;-68
2024/01/23 08:52:24;;;;;;;14.88;3.03;;;9.50;99.90;;;;;;4156201;28;20133;-74
2024/01/23 08:54:24;;;;;;;15.52;3.58;;;9.60;99.90;;;;;;4155187;28;20048;-74
2024/01/23 08:56:25;;;;;;;12.18;3.20;;;9.70;99.90;;;;;;4155737;28;20043;-74
2024/01/23 08:58:26;;;;;;;13.43;3.28;;;9.80;99.90;;;;;;4154001;28;20037;-74
2024/01/23 09:00:26;;;;;;;14.57;3.42;;;9.90;99.90;;;;;;4155997;28;20037;-74
2024/01/23 09:02:27;;;;;;;14.18;3.30;;;9.90;99.90;;;;;;4154319;28;20030;-73
2024/01/23 09:04:27;;;;;;;15.75;3.25;;;10.00;99.90;;;;;;4155710;28;20382;-74
2024/01/23 09:06:28;;;;;;;13.13;2.95;;;10.00;99.90;;;;;;4155544;28;20065;-74
2024/01/23 09:08:29;;;;;;;14.95;3.60;;;10.00;99.90;;;;;;4154276;28;21241;-74
2024/01/23 09:10:29;;;;;;;9.15;2.72;;;10.20;99.90;;;;;;4136044;28;20052;-74
2024/01/23 09:12:33;;;;;;;16.20;2.90;;;10.40;99.90;;;;;;4153143;28;20045;-74
2024/01/23 09:14:34;;;;;;;15.48;3.70;;;10.40;99.90;;;;;;4142708;28;20723;-74
2024/01/23 09:16:34;;;;;;;15.10;3.38;;;10.50;99.90;;;;;;4149480;28;20053;-74
2024/01/23 09:18:37;;;;;;;15.93;3.65;;;10.60;99.90;;;;;;4153880;28;20041;-74
2024/01/23 09:20:37;;;;;;;;;;;10.60;99.90;;;;;;4153008;28;20121;-74
2024/01/23 09:22:39;;;;;;;18.85;3.47;;;10.60;99.90;;;;;;4134139;28;20323;-74
2024/01/23 09:24:40;;;;;;;15.02;3.53;;;10.50;99.90;;;;;;4155375;28;20057;-75
2024/01/23 09:26:41;;;;;;;18.67;3.80;;;10.40;99.90;;;;;;4149260;28;20399;-74
2024/01/23 09:28:41;;;;;;;21.60;3.75;;;10.40;99.90;;;;;;4152874;28;20034;-74
2024/01/23 09:30:43;;;;;;;9.57;3.00;;;10.50;99.90;;;;;;4154561;28;20468;-74
2024/01/23 09:32:43;;;;;;;11.45;2.92;;;10.50;99.90;;;;;;4154468;28;20030;-74
2024/01/23 09:34:45;;;;;;;19.38;3.33;;;10.50;99.90;;;;;;4155688;28;20498;-74
2024/01/23 09:36:46;;;;;;;14.48;3.05;;;10.50;99.90;;;;;;4151855;28;20493;-74
2024/01/23 09:38:46;;;;;;;11.95;3.08;;;10.50;99.90;;;;;;4156349;28;20041;-74
2024/01/23 09:40:50;;;;;;;15.75;3.50;;;10.40;99.90;;;;;;4153077;28;20099;-74
2024/01/23 09:42:57;;;;;;;15.05;3.08;;;10.50;99.90;;;;;;4155191;28;20529;-74
2024/01/23 09:45:03;;;;;;;11.35;3.25;;;10.50;99.90;;;;;;4151682;28;20042;-73
2024/01/23 09:47:04;;;;;;;20.42;3.88;;;10.50;99.90;;;;;;4153244;28;20057;-74
2024/01/23 09:49:05;;;;;;;13.30;2.83;;;10.50;99.90;;;;;;4154835;28;20053;-74
2024/01/23 09:51:13;;;;;;;19.52;3.67;;;10.50;99.90;;;;;;4152559;28;20132;-74
2024/01/23 09:53:15;;;;;;;16.42;3.50;;;10.40;99.90;;;;;;4151692;28;20037;-74
2024/01/23 09:55:17;;;;;;;17.33;3.72;;;10.40;99.90;;;;;;4155535;28;20034;-74
2024/01/23 09:57:18;;;;;;;12.50;3.60;;;10.30;99.90;;;;;;4152158;28;20224;-74
2024/01/23 09:59:20;;;;;;;14.30;3.78;;;10.30;99.90;;;;;;4135470;28;20166;-74
2024/01/23 10:01:22;;;;;;;19.23;4.95;;;10.20;99.90;;;;;;4133169;28;20058;-73
2024/01/23 10:03:23;;;;;;;14.05;3.20;;;10.20;99.90;;;;;;4153798;28;20612;-74
2024/01/23 10:05:23;;;;;;;19.25;3.70;;;10.20;99.90;;;;;;4153669;28;20034;-75
2024/01/23 10:07:25;;;;;;;13.45;3.10;;;10.20;99.90;;;;;;4152219;28;20406;-73
2024/01/23 10:09:26;;;;;;;16.00;3.43;;;10.30;99.90;;;;;;4153890;28;20126;-74
2024/01/23 10:11:28;;;;;;;14.30;4.00;;;10.30;99.90;;;;;;4150996;28;20049;-74
2024/01/23 10:13:29;;;;;;;16.15;4.10;;;10.30;99.90;;;;;;4153168;28;20063;-74
2024/01/23 10:15:30;;;;;;;16.40;3.10;;;10.10;99.90;;;;;;4154218;28;20474;-75
2024/01/23 10:17:30;;;;;;;18.73;3.42;;;10.10;99.90;;;;;;4151312;28;20038;-75
2024/01/23 10:19:31;;;;;;;16.25;4.20;;;10.10;99.90;;;;;;4151831;28;20065;-73
2024/01/23 10:21:32;;;;;;;12.27;3.20;;;10.10;99.90;;;;;;4153544;28;20048;-74
2024/01/23 10:23:34;;;;;;;16.65;4.30;;;10.20;99.90;;;;;;4152661;28;20048;-72
2024/01/23 10:25:37;;;;;;;16.08;3.97;;;10.10;99.90;;;;;;4152243;28;20053;-74
2024/01/23 10:27:38;;;;;;;15.15;2.78;;;10.10;99.90;;;;;;4150782;28;20052;-72
2024/01/23 10:29:39;;;;;;;14.07;3.20;;;10.10;99.90;;;;;;4154928;28;20041;-78